Terminal Aerodrome Forecast
Issued by NWS Mt. Holly, NJ

Home | Current Version | Previous Version | Text Only | Print | Product List | Glossary On
Versions: 1 2 3 4 5 6 7 8 9 10 11 12 13 14 15 16 17 18 19 20 21 22
000
FTUS41 KPHI 281100
TAFACY
TAF
KACY 281134Z 2812/2912 31012KT P6SM FEW250
     FM281400 33013G22KT P6SM SKC
     FM282200 32012KT P6SM SKC
     FM290500 33005KT P6SM SKC=

USA.gov is the U.S. government's official web portal to all federal, state and local government web resources and services.